Time;durP1;ratioP1;P1;durP2;ratioP2;P2;SDS_P1;SDS_P2;PMS_P1;PMS_P2;Temp;Humidity;BMP_temperature;BMP_pressure;BME280_temperature;BME280_humidity;BME280_pressure;Samples;Min_cycle;Max_cycle;Signal;HPM_P1;HPM_P2
2022/12/06 00:01:15;;;;;;;17.02;7.63;;;;;;;3.51;100.00;101949.13;5042735;28;20032;-89
2022/12/06 00:03:42;;;;;;;14.05;6.88;;;;;;;3.51;100.00;101947.31;5031437;28;20052;-88
2022/12/06 00:06:10;;;;;;;14.07;6.80;;;;;;;3.54;100.00;101943.47;5033388;28;20030;-88
2022/12/06 00:08:37;;;;;;;18.02;7.60;;;;;;;3.42;100.00;101920.09;5407367;22;20447;-88
2022/12/06 00:11:08;;;;;;;16.27;6.93;;;;;;;3.39;100.00;101925.75;5013097;28;20168;-88
2022/12/06 00:13:34;;;;;;;13.47;6.80;;;;;;;3.48;100.00;101942.38;5006254;28;20068;-89
2022/12/06 00:16:06;;;;;;;17.63;6.93;;;;;;;3.42;100.00;101928.03;4994697;28;20065;-88
2022/12/06 00:18:33;;;;;;;18.27;7.63;;;;;;;3.47;100.00;101927.47;4994262;28;20059;-89
2022/12/06 00:21:11;;;;;;;14.93;7.15;;;;;;;3.57;100.00;101949.22;4993822;28;20030;-89
2022/12/06 00:23:40;;;;;;;18.33;7.55;;;;;;;3.57;100.00;101940.44;4995336;28;20557;-89
2022/12/06 00:26:06;;;;;;;19.33;8.67;;;;;;;3.59;100.00;101946.41;4993831;28;20058;-89
2022/12/06 00:28:32;;;;;;;18.23;8.70;;;;;;;3.60;100.00;101943.53;4993550;28;20290;-89
2022/12/06 00:31:00;;;;;;;20.20;8.45;;;;;;;3.59;100.00;101946.41;5013240;28;20034;-89
2022/12/06 00:33:26;;;;;;;18.13;8.13;;;;;;;3.57;100.00;101938.59;5007690;28;20068;-89
2022/12/06 00:35:56;;;;;;;20.50;8.20;;;;;;;3.58;100.00;101942.91;5013448;28;20026;-89
2022/12/06 00:38:22;;;;;;;17.98;7.32;;;;;;;3.59;100.00;101941.09;5013516;28;20030;-89
2022/12/06 00:40:47;;;;;;;14.57;7.90;;;;;;;3.56;100.00;101933.50;5013822;28;20497;-89
2022/12/06 00:43:13;;;;;;;18.90;7.28;;;;;;;3.58;100.00;101937.59;5010053;28;20029;-89
2022/12/06 00:45:38;;;;;;;16.67;7.27;;;;;;;3.60;100.00;101937.44;5013235;28;20389;-89
2022/12/06 00:48:04;;;;;;;18.00;7.23;;;;;;;3.60;100.00;101937.44;5028256;22;20053;-90
2022/12/06 00:50:29;;;;;;;18.00;7.53;;;;;;;3.59;100.00;101941.09;5013184;28;20033;-90
2022/12/06 00:52:54;;;;;;;17.20;7.47;;;;;;;3.57;100.00;101935.16;5012822;28;20026;-89
2022/12/06 00:55:20;;;;;;;14.47;6.93;;;;;;;3.60;100.00;101938.25;5014557;28;20373;-89
2022/12/06 00:57:46;;;;;;;16.53;7.43;;;;;;;3.49;100.00;101920.97;5056181;22;20516;-89
2022/12/06 01:00:24;;;;;;;;;;;;;;;;;;;;;
2022/12/06 01:02:50;;;;;;;17.80;7.30;;;;;;;3.60;100.00;101935.59;5024852;28;20046;-89
2022/12/06 01:05:37;;;;;;;16.30;7.53;;;;;;;3.49;100.00;101920.16;5032617;28;20104;-89
2022/12/06 01:08:05;;;;;;;16.30;7.50;;;;;;;3.64;100.00;101944.03;5099910;22;20046;-89
2022/12/06 01:10:30;;;;;;;19.30;8.30;;;;;;;3.63;100.00;101953.78;5031371;28;20127;-89
2022/12/06 01:12:56;;;;;;;25.80;8.90;;;;;;;3.64;100.00;101950.13;5031154;28;20653;-89
2022/12/06 01:15:21;;;;;;;19.23;8.53;;;;;;;3.65;100.00;101945.66;5032664;28;20072;-89
2022/12/06 01:17:46;;;;;;;18.60;8.37;;;;;;;3.64;100.00;101944.03;5032029;28;20022;-89
2022/12/06 01:20:12;;;;;;;17.70;8.53;;;;;;;3.66;100.00;101949.13;5028876;28;20048;-89
2022/12/06 01:22:37;;;;;;;24.10;9.57;;;;;;;3.65;100.00;101945.66;5028344;28;20076;-89
2022/12/06 01:25:02;;;;;;;20.07;8.80;;;;;;;3.62;100.00;101940.72;5032286;28;20101;-89
2022/12/06 01:27:28;;;;;;;17.63;8.47;;;;;;;3.64;100.00;101944.03;5032340;28;20048;-89
2022/12/06 01:29:53;;;;;;;17.97;8.83;;;;;;;3.61;100.00;101939.09;5029269;28;20092;-89
2022/12/06 01:32:18;;;;;;;22.33;8.87;;;;;;;3.63;100.00;101937.88;5032135;28;20021;-89
2022/12/06 01:34:44;;;;;;;21.83;8.40;;;;;;;3.65;100.00;101945.66;5030319;28;20033;-89
2022/12/06 01:37:10;;;;;;;17.57;8.70;;;;;;;3.66;100.00;101946.47;5031708;28;20030;-89
2022/12/06 01:39:35;;;;;;;23.60;8.65;;;;;;;3.66;100.00;101947.28;5031517;28;20108;-88
2022/12/06 01:42:00;;;;;;;17.10;8.60;;;;;;;3.64;100.00;101949.31;5028570;28;20040;-89
2022/12/06 01:44:43;;;;;;;18.20;7.63;;;;;;;3.64;100.00;101947.50;5029951;28;20037;-88
2022/12/06 01:47:17;;;;;;;16.48;7.63;;;;;;;3.64;100.00;101950.13;5012903;28;20037;-89
2022/12/06 01:49:53;;;;;;;17.23;8.13;;;;;;;3.66;100.00;101943.81;5027467;28;20029;-89
2022/12/06 01:52:22;;;;;;;16.65;7.60;;;;;;;3.61;100.00;101939.91;5031811;28;20040;-89
2022/12/06 01:54:48;;;;;;;16.73;7.30;;;;;;;3.62;100.00;101933.59;5031609;28;20103;-89
2022/12/06 01:57:15;;;;;;;15.27;7.27;;;;;;;3.60;100.00;101926.84;5031691;28;20959;-88
2022/12/06 01:59:41;;;;;;;17.90;7.43;;;;;;;3.64;100.00;101936.88;5028758;28;20083;-89
2022/12/06 02:02:07;;;;;;;16.83;7.17;;;;;;;3.66;100.00;101938.53;5030172;28;20109;-89
2022/12/06 02:04:32;;;;;;;14.70;7.28;;;;;;;3.64;100.00;101934.22;5031467;28;20136;-89
2022/12/06 02:06:59;;;;;;;13.27;7.00;;;;;;;3.61;100.00;101933.78;5030352;28;20796;-90
2022/12/06 02:09:27;;;;;;;16.60;6.97;;;;;;;3.63;100.00;101937.06;5031464;28;20599;-89
2022/12/06 02:11:52;;;;;;;22.50;8.07;;;;;;;3.65;100.00;101937.72;5030861;28;20280;-88
2022/12/06 02:14:22;;;;;;;16.25;7.47;;;;;;;3.65;100.00;101935.06;5028846;28;20037;-88
2022/12/06 02:17:06;;;;;;;16.70;7.38;;;;;;;3.66;100.00;101935.88;5023899;28;20445;-88
2022/12/06 02:19:40;;;;;;;19.80;7.33;;;;;;;3.64;100.00;101938.72;5029405;28;20116;-87
2022/12/06 02:22:25;;;;;;;16.38;7.30;;;;;;;3.63;100.00;101934.44;5031210;28;20033;-88
2022/12/06 02:25:15;;;;;;;16.17;7.28;;;;;;;3.64;100.00;101936.06;5030991;28;20055;-88
2022/12/06 02:27:54;;;;;;;19.13;8.05;;;;;;;3.61;100.00;101931.94;5030007;28;20682;-88
2022/12/06 02:30:37;;;;;;;17.20;7.30;;;;;;;3.61;100.00;101931.94;5028966;28;20041;-88
2022/12/06 02:33:07;;;;;;;20.02;7.63;;;;;;;3.61;100.00;101933.78;5025345;28;20075;-91
2022/12/06 02:35:47;;;;;;;19.27;7.53;;;;;;;3.61;100.00;101926.63;5031896;28;20033;-88
2022/12/06 02:38:32;;;;;;;14.50;7.55;;;;;;;3.61;100.00;101929.28;5028333;28;20127;-88
2022/12/06 02:41:02;;;;;;;16.93;7.63;;;;;;;3.61;100.00;101925.84;5029939;28;20102;-87
2022/12/06 02:43:36;;;;;;;16.10;7.10;;;;;;;3.60;100.00;101922.34;5029578;28;20342;-87
2022/12/06 02:46:04;;;;;;;16.30;6.97;;;;;;;3.59;100.00;101925.19;5027885;28;20058;-87
2022/12/06 02:48:32;;;;;;;17.60;7.53;;;;;;;3.58;100.00;101920.91;5030523;28;20481;-87
2022/12/06 02:51:03;;;;;;;18.13;7.00;;;;;;;3.57;100.00;101919.25;5029751;28;20043;-88
2022/12/06 02:53:31;;;;;;;15.48;7.05;;;;;;;3.53;100.00;101913.50;5011758;28;20044;-88
2022/12/06 02:55:57;;;;;;;17.17;6.57;;;;;;;3.56;100.00;101914.94;5030222;28;20030;-88
2022/12/06 02:58:22;;;;;;;15.50;6.60;;;;;;;3.55;100.00;101916.78;5028948;28;20512;-88
2022/12/06 03:00:54;;;;;;;14.70;6.38;;;;;;;3.55;100.00;101913.31;5029842;28;20075;-88
2022/12/06 03:03:30;;;;;;;17.93;7.27;;;;;;;3.51;100.00;101906.72;5029695;28;20043;-88
2022/12/06 03:08:37;;;;;;;16.33;6.70;;;;;;;3.51;100.00;101915.50;5052355;22;20065;-88
2022/12/06 03:11:03;;;;;;;16.67;6.40;;;;;;;3.53;100.00;101915.31;5029445;28;20030;-89
2022/12/06 03:13:49;;;;;;;19.47;6.93;;;;;;;3.51;100.00;101917.31;5028632;28;20284;-88
2022/12/06 03:16:31;;;;;;;16.90;6.82;;;;;;;3.52;100.00;101917.16;5028495;28;20080;-88
2022/12/06 03:19:08;;;;;;;17.75;6.93;;;;;;;3.52;100.00;101914.50;5029948;28;20044;-88
2022/12/06 03:21:38;;;;;;;19.73;6.97;;;;;;;3.51;100.00;101922.63;5030161;28;20113;-88
2022/12/06 03:24:11;;;;;;;16.63;6.47;;;;;;;3.53;100.00;101921.44;5030861;28;20013;-88
2022/12/06 03:26:38;;;;;;;18.37;6.40;;;;;;;3.39;100.00;101901.06;5037110;22;20037;-89
2022/12/06 03:29:05;;;;;;;17.70;7.07;;;;;;;3.43;100.00;101911.13;5034099;28;20288;-89
2022/12/06 03:31:32;;;;;;;18.65;6.97;;;;;;;3.51;100.00;101928.75;5032179;28;20425;-89
2022/12/06 03:34:04;;;;;;;18.38;6.75;;;;;;;3.50;100.00;101921.81;5033264;28;20067;-89
2022/12/06 03:36:31;;;;;;;15.50;6.82;;;;;;;3.48;100.00;101913.22;5035053;28;20485;-88
2022/12/06 03:39:00;;;;;;;15.05;6.68;;;;;;;3.53;100.00;101932.06;4999233;28;20026;-89
2022/12/06 03:41:31;;;;;;;20.15;6.50;;;;;;;3.55;100.00;101923.91;4995478;28;20433;-89
2022/12/06 03:43:58;;;;;;;18.02;6.65;;;;;;;3.52;100.00;101916.31;4999349;28;20014;-89
2022/12/06 03:46:29;;;;;;;18.80;6.73;;;;;;;3.54;100.00;101922.25;5024059;28;20020;-89
2022/12/06 03:49:00;;;;;;;20.77;7.10;;;;;;;3.56;100.00;101921.06;5022798;28;20332;-88
2022/12/06 03:51:32;;;;;;;17.00;7.03;;;;;;;3.54;100.00;101920.44;5022954;28;20026;-89
2022/12/06 03:54:00;;;;;;;19.40;6.43;;;;;;;3.53;100.00;101921.44;5020607;28;20026;-89
2022/12/06 03:56:26;;;;;;;19.70;7.00;;;;;;;3.52;100.00;101913.66;5025316;28;20033;-89
2022/12/06 03:58:52;;;;;;;18.70;7.35;;;;;;;3.53;100.00;101916.16;5026538;28;20056;-88
2022/12/06 04:01:17;;;;;;;22.93;7.37;;;;;;;3.54;100.00;101919.59;5042668;28;20021;-89
2022/12/06 04:03:42;;;;;;;27.57;7.70;;;;;;;3.47;100.00;101907.09;5026110;28;20034;-89
2022/12/06 04:06:09;;;;;;;23.38;7.60;;;;;;;3.50;100.00;101913.88;5035356;28;20116;-87
2022/12/06 04:08:35;;;;;;;17.93;7.60;;;;;;;3.51;100.00;101917.31;5033480;28;20388;-87
2022/12/06 04:11:00;;;;;;;23.73;7.93;;;;;;;3.49;100.00;101920.16;5023521;28;20022;-87
2022/12/06 04:13:26;;;;;;;25.23;7.73;;;;;;;3.49;100.00;101914.88;5017114;28;20056;-88
2022/12/06 04:15:57;;;;;;;23.17;7.90;;;;;;;3.52;100.00;101909.22;5017683;28;20037;-87
2022/12/06 04:18:24;;;;;;;19.90;7.53;;;;;;;3.53;100.00;101910.00;4995940;28;20044;-86
2022/12/06 04:23:49;;;;;;;19.48;7.22;;;;;;;3.51;100.00;101914.66;5020202;28;20568;-86
2022/12/06 04:26:18;;;;;;;23.98;7.50;;;;;;;3.53;100.00;101912.66;5014476;28;20049;-87
2022/12/06 04:39:41;;;;;;;28.88;7.82;;;;;;;3.56;100.00;101926.38;5012467;28;20033;-87
2022/12/06 04:44:51;;;;;;;22.85;7.78;;;;;;;3.54;100.00;101917.78;5032497;28;20072;-88
2022/12/06 04:47:18;;;;;;;31.23;8.20;;;;;;;3.56;100.00;101920.25;5027931;28;21447;-89
2022/12/06 04:49:43;;;;;;;26.17;7.80;;;;;;;3.55;100.00;101915.97;5012103;28;20022;-88
2022/12/06 04:52:09;;;;;;;23.60;7.03;;;;;;;3.55;100.00;101913.31;5028533;28;20080;-88
2022/12/06 04:54:35;;;;;;;27.17;7.20;;;;;;;3.58;100.00;101920.91;5013780;28;20033;-88
2022/12/06 04:57:09;;;;;;;16.75;6.78;;;;;;;3.58;100.00;101916.41;5012334;28;20025;-87
2022/12/06 04:59:36;;;;;;;25.77;7.97;;;;;;;3.58;100.00;101913.75;5011985;28;20030;-90
2022/12/06 05:02:01;;;;;;;20.67;6.32;;;;;;;3.58;100.00;101913.75;5025601;28;20386;-85
2022/12/06 05:04:26;;;;;;;25.10;7.73;;;;;;;3.57;100.00;101913.94;5032212;28;20033;-86
2022/12/06 05:06:51;;;;;;;22.80;7.27;;;;;;;3.58;100.00;101924.34;5031935;28;20105;-86
2022/12/06 05:09:17;;;;;;;29.00;7.50;;;;;;;3.57;100.00;101920.06;5032124;28;20025;-86
2022/12/06 05:11:42;;;;;;;26.30;7.10;;;;;;;3.57;100.00;101916.59;5025318;28;20029;-87
2022/12/06 05:14:07;;;;;;;21.77;6.70;;;;;;;3.56;100.00;101917.59;5009961;28;20494;-85
2022/12/06 05:16:33;;;;;;;24.97;7.67;;;;;;;3.55;100.00;101919.44;5002432;28;20034;-85
2022/12/06 05:18:58;;;;;;;29.87;8.10;;;;;;;3.55;100.00;101914.16;5012163;28;20023;-85
2022/12/06 05:21:24;;;;;;;22.80;7.23;;;;;;;3.51;100.00;101906.72;5020916;28;20362;-85
2022/12/06 05:23:53;;;;;;;21.75;7.45;;;;;;;3.53;100.00;101910.84;5004575;28;20030;-85
2022/12/06 05:26:20;;;;;;;18.60;7.97;;;;;;;3.54;100.00;101909.00;5010259;28;20148;-85
2022/12/06 05:28:47;;;;;;;23.83;6.78;;;;;;;3.51;100.00;101912.84;5031522;28;20033;-85
2022/12/06 05:31:13;;;;;;;19.30;6.50;;;;;;;3.51;100.00;101914.66;5016248;28;20037;-85
2022/12/06 05:33:39;;;;;;;20.43;6.70;;;;;;;3.48;100.00;101913.22;5010942;28;20273;-85
2022/12/06 05:36:17;;;;;;;19.85;6.65;;;;;;;3.45;100.00;101908.28;5010587;28;20113;-85
2022/12/06 05:38:43;;;;;;;21.73;6.50;;;;;;;3.43;100.00;101910.28;5011477;28;20041;-84
2022/12/06 05:41:08;;;;;;;22.07;6.30;;;;;;;3.40;100.00;101905.34;5003877;28;20030;-85
2022/12/06 05:43:33;;;;;;;21.73;7.10;;;;;;;3.39;100.00;101909.84;4992076;28;20171;-86
2022/12/06 05:45:59;;;;;;;17.90;7.13;;;;;;;3.39;100.00;101912.50;5007008;28;20022;-86
2022/12/06 05:48:25;;;;;;;27.90;6.22;;;;;;;3.38;100.00;101910.84;5009254;28;20026;-86
2022/12/06 05:50:50;;;;;;;22.10;7.40;;;;;;;3.36;100.00;101917.34;5011087;28;20088;-85
2022/12/06 05:53:16;;;;;;;18.47;6.10;;;;;;;3.30;100.00;101914.41;5022500;28;20056;-85
2022/12/06 05:55:42;;;;;;;21.45;6.60;;;;;;;3.31;100.00;101915.22;5013043;28;20038;-85
2022/12/06 05:58:08;;;;;;;23.90;5.80;;;;;;;3.29;100.00;101922.53;4995970;28;20022;-85
2022/12/06 06:00:33;;;;;;;20.73;5.83;;;;;;;3.28;100.00;101918.25;5011320;28;20382;-85
2022/12/06 06:02:59;;;;;;;21.95;6.10;;;;;;;3.24;100.00;101909.03;5011240;28;20117;-85
2022/12/06 06:05:24;;;;;;;22.70;6.73;;;;;;;3.27;100.00;101911.31;4996931;28;20037;-86
2022/12/06 06:07:49;;;;;;;20.67;5.70;;;;;;;3.29;100.00;101910.13;4991593;28;20035;-85
2022/12/06 06:10:15;;;;;;;26.13;6.30;;;;;;;3.28;100.00;101913.75;5004534;28;20029;-86
2022/12/06 06:12:42;;;;;;;17.65;6.13;;;;;;;3.32;100.00;101919.50;5010829;28;20026;-85
2022/12/06 06:15:07;;;;;;;20.15;5.55;;;;;;;3.29;100.00;101915.41;5009827;28;20036;-85
2022/12/06 06:17:33;;;;;;;20.58;5.82;;;;;;;3.29;100.00;101920.72;5011520;28;20112;-85
2022/12/06 06:20:03;;;;;;;17.80;5.30;;;;;;;3.25;100.00;101918.63;5010105;28;20358;-85
2022/12/06 06:22:29;;;;;;;23.23;5.55;;;;;;;3.26;100.00;101922.91;5027739;28;20029;-85
2022/12/06 06:24:54;;;;;;;13.93;5.50;;;;;;;3.23;100.00;101916.13;4996275;28;20032;-87
2022/12/06 06:27:19;;;;;;;16.08;5.15;;;;;;;3.23;100.00;101920.63;4991555;28;20030;-86
2022/12/06 06:29:46;;;;;;;18.37;5.20;;;;;;;3.18;100.00;101919.34;4993737;28;20120;-84
2022/12/06 06:32:12;;;;;;;12.73;5.10;;;;;;;3.21;100.00;101919.97;5024403;28;20113;-85
2022/12/06 06:34:37;;;;;;;14.67;5.53;;;;;;;3.17;100.00;101917.69;5009234;28;21999;-85
2022/12/06 06:37:04;;;;;;;18.67;5.18;;;;;;;3.15;100.00;101918.88;5021621;28;20033;-85
2022/12/06 06:39:29;;;;;;;17.13;5.17;;;;;;;3.13;100.00;101911.09;5010898;28;20057;-86
2022/12/06 06:41:54;;;;;;;18.50;5.45;;;;;;;3.12;100.00;101911.28;5010174;28;20105;-83
2022/12/06 06:44:20;;;;;;;14.17;5.03;;;;;;;3.09;100.00;101909.00;4998390;28;20429;-84
2022/12/06 06:46:45;;;;;;;14.10;4.73;;;;;;;3.06;100.00;101912.84;4993061;28;20026;-84
2022/12/06 06:49:11;;;;;;;12.93;4.70;;;;;;;3.03;100.00;101915.84;4995242;28;20065;-84
2022/12/06 06:51:36;;;;;;;14.93;4.80;;;;;;;2.99;100.00;101914.56;5023668;28;20025;-84
2022/12/06 06:54:01;;;;;;;14.25;5.35;;;;;;;2.95;100.00;101902.66;5012463;28;20109;-84
2022/12/06 06:56:27;;;;;;;11.60;4.80;;;;;;;2.83;100.00;101910.25;5008768;28;20025;-84
2022/12/06 06:58:54;;;;;;;12.37;4.90;;;;;;;2.72;100.00;101909.66;5008274;28;20025;-85
2022/12/06 07:01:22;;;;;;;17.88;5.18;;;;;;;2.65;100.00;101902.63;5009188;28;20041;-85
2022/12/06 07:03:49;;;;;;;19.98;4.80;;;;;;;2.62;100.00;101903.81;5010431;28;20034;-85
2022/12/06 07:06:15;;;;;;;12.18;4.63;;;;;;;2.66;100.00;101906.91;4996974;28;20018;-84
2022/12/06 07:08:40;;;;;;;18.73;5.40;;;;;;;2.69;100.00;101904.72;4993367;28;20034;-85
2022/12/06 07:11:07;;;;;;;19.45;5.00;;;;;;;2.64;100.00;101900.97;4995550;28;20108;-85
2022/12/06 07:13:34;;;;;;;17.90;4.70;;;;;;;2.54;100.00;101907.34;5004145;28;20022;-84
2022/12/06 07:19:22;;;;;;;17.50;4.60;;;;;;;2.38;100.00;101903.00;5061437;22;20151;-85
2022/12/06 07:21:48;;;;;;;10.35;4.43;;;;;;;2.21;100.00;101896.97;5028132;28;20054;-85
2022/12/06 07:24:14;;;;;;;14.30;4.70;;;;;;;2.23;100.00;101908.19;5028570;28;20193;-85
2022/12/06 07:26:39;;;;;;;11.30;4.47;;;;;;;2.22;100.00;101914.50;5029065;28;20029;-86
2022/12/06 07:29:05;;;;;;;15.70;4.73;;;;;;;2.33;100.00;101910.63;5027399;28;20041;-85
2022/12/06 07:31:30;;;;;;;11.60;5.23;;;;;;;2.40;100.00;101916.03;5026209;28;20064;-85
2022/12/06 07:33:57;;;;;;;17.73;4.78;;;;;;;2.46;100.00;101906.59;5029850;28;20535;-86
2022/12/06 07:36:24;;;;;;;13.43;4.67;;;;;;;2.49;100.00;101914.97;5029713;28;20465;-86
2022/12/06 07:38:51;;;;;;;19.08;4.95;;;;;;;2.53;100.00;101911.00;5029161;28;20045;-86
2022/12/06 07:46:47;;;;;;;18.75;5.30;;;;;;;2.65;100.00;101913.22;5029733;28;20530;-86
2022/12/06 07:49:14;;;;;;;10.57;4.77;;;;;;;2.66;100.00;101912.22;5028803;28;20137;-86
2022/12/06 07:51:40;;;;;;;13.93;5.10;;;;;;;2.70;100.00;101916.97;5029354;28;20070;-86
2022/12/06 07:54:06;;;;;;;17.17;5.15;;;;;;;2.75;100.00;101926.19;5029603;28;20398;-86
2022/12/06 07:56:31;;;;;;;13.88;5.43;;;;;;;2.78;100.00;101929.31;5028813;28;20079;-85
2022/12/06 07:58:56;;;;;;;20.67;5.17;;;;;;;2.80;100.00;101932.59;5012195;28;20032;-85
2022/12/06 08:01:22;;;;;;;14.80;4.93;;;;;;;2.79;100.00;101933.59;5030806;28;20038;-92
2022/12/06 08:03:47;;;;;;;14.50;4.63;;;;;;;2.83;100.00;101934.88;5036586;28;20047;-89
2022/12/06 08:06:13;;;;;;;13.17;4.77;;;;;;;2.85;100.00;101940.00;5034374;28;20022;-89
2022/12/06 08:08:38;;;;;;;17.00;4.88;;;;;;;2.85;100.00;101935.53;5009482;28;20681;-88
2022/12/06 08:11:06;;;;;;;17.93;5.10;;;;;;;2.86;100.00;101934.53;5027737;28;20079;-88
2022/12/06 08:13:33;;;;;;;12.23;4.75;;;;;;;2.90;100.00;101935.00;5017138;28;20030;-89
2022/12/06 08:15:59;;;;;;;18.17;5.13;;;;;;;2.90;100.00;101928.88;5033235;28;20026;-91
2022/12/06 08:18:24;;;;;;;15.80;4.77;;;;;;;2.97;100.00;101935.94;5042205;28;20048;-91
2022/12/06 08:20:51;;;;;;;15.93;4.87;;;;;;;2.99;100.00;101943.69;5028505;28;20025;-90
2022/12/06 08:23:17;;;;;;;19.90;5.38;;;;;;;3.00;100.00;101932.09;5037671;28;20079;-91
2022/12/06 08:25:42;;;;;;;19.13;5.75;;;;;;;3.05;100.00;101940.34;5042049;28;20112;-91
2022/12/06 08:28:08;;;;;;;16.23;4.87;;;;;;;3.08;100.00;101939.97;5016249;28;20105;-90
2022/12/06 08:30:33;;;;;;;14.47;5.27;;;;;;;3.13;100.00;101944.72;5034633;28;20029;-89
2022/12/06 08:32:58;;;;;;;18.70;4.50;;;;;;;3.17;100.00;101952.13;5036616;28;20028;-90
2022/12/06 08:35:24;;;;;;;10.80;5.03;;;;;;;3.18;100.00;101937.88;5037647;28;20041;-92
2022/12/06 08:37:49;;;;;;;16.30;5.33;;;;;;;3.23;100.00;101933.88;5037480;28;20025;-91
2022/12/06 08:40:14;;;;;;;13.98;4.78;;;;;;;3.17;100.00;101930.13;5002342;28;20033;-91
2022/12/06 08:42:44;;;;;;;11.50;5.13;;;;;;;3.15;100.00;101934.78;5027821;28;20056;-91
2022/12/06 08:45:10;;;;;;;17.42;4.95;;;;;;;2.98;100.00;101934.94;5032791;28;20021;-92
2022/12/06 08:47:35;;;;;;;14.87;4.83;;;;;;;2.83;100.00;101936.72;5034471;28;20032;-91
2022/12/06 08:50:01;;;;;;;14.00;4.87;;;;;;;2.68;100.00;101944.63;5033299;28;20037;-91
2022/12/06 08:52:26;;;;;;;13.77;5.25;;;;;;;2.55;100.00;101939.91;5035563;28;20056;-91
2022/12/06 08:54:51;;;;;;;11.10;4.77;;;;;;;2.46;100.00;101944.44;5033066;28;20033;-90
2022/12/06 08:57:17;;;;;;;12.57;4.90;;;;;;;2.36;100.00;101949.16;5035228;28;20036;-91
2022/12/06 08:59:42;;;;;;;13.13;5.00;;;;;;;2.28;100.00;101942.09;5033634;28;20108;-90
2022/12/06 09:02:11;;;;;;;13.97;5.27;;;;;;;2.20;100.00;101945.56;5032000;28;20037;-90
2022/12/06 09:04:36;;;;;;;18.33;5.67;;;;;;;2.12;100.00;101943.81;5031749;28;20294;-90
2022/12/06 09:07:02;;;;;;;18.30;5.97;;;;;;;2.06;100.00;101943.69;5030587;28;20041;-90
2022/12/06 09:09:27;;;;;;;20.13;5.80;;;;;;;1.99;100.00;101940.09;5027795;28;20737;-90
2022/12/06 09:11:52;;;;;;;17.67;5.67;;;;;;;1.99;100.00;101950.69;5029908;28;20025;-89
2022/12/06 09:14:18;;;;;;;15.40;5.83;;;;;;;1.93;100.00;101947.72;5030126;28;20021;-91
2022/12/06 09:16:46;;;;;;;15.33;5.73;;;;;;;1.92;100.00;101963.72;5028485;28;20159;-90
2022/12/06 09:19:12;;;;;;;13.03;5.43;;;;;;;1.88;100.00;101960.63;5021724;28;20373;-90
2022/12/06 09:21:45;;;;;;;16.13;6.38;;;;;;;1.82;100.00;101961.31;5030454;28;20021;-90
2022/12/06 09:24:13;;;;;;;20.52;6.93;;;;;;;1.77;100.00;101961.81;4996060;28;20038;-90
2022/12/06 09:26:39;;;;;;;23.58;6.70;;;;;;;1.76;100.00;101962.00;5030674;28;20033;-90
2022/12/06 09:29:04;;;;;;;23.30;6.78;;;;;;;1.72;100.00;101963.31;5033694;28;20026;-90
2022/12/06 09:31:31;;;;;;;22.53;7.00;;;;;;;1.70;100.00;101962.66;5031225;28;20384;-90
2022/12/06 09:33:56;;;;;;;21.50;7.25;;;;;;;1.67;100.00;101964.66;5012799;28;20024;-90
2022/12/06 09:36:25;;;;;;;29.27;8.93;;;;;;;1.73;100.00;101962.34;5027274;28;20034;-89
2022/12/06 09:38:57;;;;;;;29.88;9.35;;;;;;;1.76;100.00;101962.81;5032387;28;20052;-90
2022/12/06 09:41:59;;;;;;;24.90;7.97;;;;;;;1.86;100.00;101969.72;5014801;28;20021;-89
2022/12/06 09:44:43;;;;;;;20.42;7.55;;;;;;;1.92;100.00;101969.84;5035692;28;20038;-88
2022/12/06 09:47:14;;;;;;;29.57;7.63;;;;;;;2.00;100.00;101978.75;5006150;28;20529;-87
2022/12/06 09:49:54;;;;;;;26.43;7.73;;;;;;;2.06;100.00;101965.66;5016790;28;20304;-89
2022/12/06 09:52:58;;;;;;;21.40;7.20;;;;;;;2.12;100.00;101969.44;5013819;28;20030;-91
2022/12/06 09:55:39;;;;;;;23.45;7.90;;;;;;;2.18;100.00;101957.34;4994940;28;20034;-90
2022/12/06 09:58:26;;;;;;;23.38;7.53;;;;;;;2.24;100.00;101965.41;5013066;28;20092;-89
2022/12/06 10:01:07;;;;;;;22.08;8.15;;;;;;;2.28;100.00;101957.97;5014830;28;20028;-90
2022/12/06 10:03:55;;;;;;;20.00;7.68;;;;;;;2.40;100.00;101966.28;5041622;28;20033;-95
2022/12/06 10:06:29;;;;;;;22.00;7.05;;;;;;;2.48;100.00;101957.47;5033421;28;20112;-93
2022/12/06 10:09:23;;;;;;;22.83;7.60;;;;;;;2.51;100.00;101949.19;5042583;28;20026;-93
2022/12/06 10:12:09;;;;;;;19.77;6.57;;;;;;;2.56;100.00;101952.16;5046562;28;20284;-93
2022/12/06 10:15:00;;;;;;;15.38;6.30;;;;;;;2.61;100.00;101948.97;5055132;28;20034;-93
2022/12/06 10:17:40;;;;;;;21.83;6.20;;;;;;;2.63;100.00;101944.31;5041114;28;20037;-93
2022/12/06 10:20:42;;;;;;;16.60;5.88;;;;;;;2.68;100.00;101941.97;5045473;28;20063;-95
2022/12/06 10:23:21;;;;;;;15.35;5.82;;;;;;;2.75;100.00;101950.03;5053672;28;20097;-96
2022/12/06 10:26:01;;;;;;;17.35;6.38;;;;;;;2.82;100.00;101948.31;5037543;28;20034;-95
2022/12/06 10:28:32;;;;;;;18.57;5.60;;;;;;;2.77;100.00;101926.84;5044541;28;20009;-95
2022/12/06 10:31:07;;;;;;;20.03;6.40;;;;;;;2.92;100.00;101940.94;5056271;28;20280;-96
2022/12/06 10:33:52;;;;;;;22.45;8.02;;;;;;;2.97;100.00;101938.59;5056766;28;20029;-96
2022/12/06 10:36:32;;;;;;;16.15;6.03;;;;;;;3.05;100.00;101942.13;5055937;28;20021;-95
2022/12/06 10:39:15;;;;;;;14.88;6.07;;;;;;;3.07;100.00;101943.63;5054791;28;20014;-94
2022/12/06 10:41:54;;;;;;;25.45;7.88;;;;;;;3.17;100.00;101949.47;5056735;28;20026;-94
2022/12/06 10:44:31;;;;;;;22.45;6.65;;;;;;;3.21;100.00;101943.81;5056696;28;20026;-95
2022/12/06 10:47:11;;;;;;;25.35;6.80;;;;;;;3.29;100.00;101943.72;5055722;28;20009;-93
2022/12/06 10:49:47;;;;;;;26.03;6.80;;;;;;;3.35;100.00;101950.16;5055680;28;20039;-95
2022/12/06 10:52:38;;;;;;;20.55;7.10;;;;;;;3.40;100.00;101948.59;5051955;28;20045;-94
2022/12/06 10:55:10;;;;;;;20.15;6.90;;;;;;;3.39;100.00;101957.53;5055858;28;20022;-94
2022/12/06 10:57:42;;;;;;;17.95;6.50;;;;;;;3.35;100.00;101953.59;5054255;28;20013;-94
2022/12/06 11:00:16;;;;;;;14.27;5.90;;;;;;;3.27;100.00;101943.09;5049808;28;20071;-93
2022/12/06 11:02:50;;;;;;;16.00;5.68;;;;;;;3.26;100.00;101952.06;5053001;28;20021;-95
2022/12/06 11:05:40;;;;;;;14.23;6.30;;;;;;;3.26;100.00;101941.47;5051409;28;20032;-91
2022/12/06 11:08:13;;;;;;;22.10;7.22;;;;;;;3.36;100.00;101943.84;5032385;28;20026;-90
2022/12/06 11:10:40;;;;;;;13.07;6.33;;;;;;;3.46;100.00;101952.34;5031989;28;20107;-94
2022/12/06 11:13:21;;;;;;;17.98;7.38;;;;;;;3.47;100.00;101949.47;5039758;28;20013;-93
2022/12/06 11:15:55;;;;;;;23.15;7.25;;;;;;;3.54;100.00;101948.75;5054771;28;20076;-93
2022/12/06 11:18:21;;;;;;;15.70;6.53;;;;;;;3.56;100.00;101944.91;5054420;28;20066;-93
2022/12/06 11:20:57;;;;;;;26.08;6.88;;;;;;;3.58;100.00;101942.91;5049284;28;20021;-92
2022/12/06 11:23:31;;;;;;;14.43;5.22;;;;;;;3.60;100.00;101946.19;5046436;28;20478;-93
2022/12/06 11:26:23;;;;;;;8.93;4.30;;;;;;;3.63;100.00;101950.34;5040902;28;20101;-92
2022/12/06 11:29:04;;;;;;;10.90;3.90;;;;;;;3.60;100.00;101937.44;5024761;28;20287;-91
2022/12/06 11:31:31;;;;;;;12.20;4.20;;;;;;;3.69;100.00;101936.31;5045993;28;20056;-91
2022/12/06 11:33:58;;;;;;;13.68;4.93;;;;;;;3.74;100.00;101939.25;5040239;28;20022;-94
2022/12/06 11:36:25;;;;;;;18.38;6.80;;;;;;;3.93;100.00;101931.72;5044548;28;20089;-92
2022/12/06 11:38:51;;;;;;;16.10;6.50;;;;;;;4.09;100.00;101934.16;5038128;28;20034;-95
2022/12/06 11:41:21;;;;;;;15.90;6.80;;;;;;;4.32;100.00;101930.53;5047342;28;20167;-94
2022/12/06 11:43:47;;;;;;;17.60;6.80;;;;;;;4.37;100.00;101927.28;5048249;28;20021;-93
2022/12/06 11:46:14;;;;;;;16.43;6.57;;;;;;;4.38;100.00;101919.13;5045923;28;20284;-93
2022/12/06 11:48:41;;;;;;;13.35;6.00;;;;;;;4.33;100.00;101926.03;5047103;28;20036;-93
2022/12/06 11:51:18;;;;;;;13.02;5.00;;;;;;;4.24;100.00;101915.53;5030848;28;20053;-94
2022/12/06 11:53:50;;;;;;;8.55;4.35;;;;;;;4.20;100.00;101916.13;5041643;28;20107;-94
2022/12/06 11:56:25;;;;;;;11.43;3.97;;;;;;;4.13;100.00;101907.25;5042294;28;20056;-94
2022/12/06 11:59:23;;;;;;;13.32;4.32;;;;;;;4.23;100.00;101910.41;5025115;28;20084;-94